Time;durP1;ratioP1;P1;durP2;ratioP2;P2;SDS_P1;SDS_P2;PMS_P1;PMS_P2;Temp;Humidity;BMP_temperature;BMP_pressure;BME280_temperature;BME280_humidity;BME280_pressure;Samples;Min_cycle;Max_cycle;Signal;HPM_P1;HPM_P2
2021/09/03 17:27:27;;;;;;;13.98;5.65;;;;;;;9.40;77.40;97839.41;5115878;27;20077;-81
2021/09/03 17:29:55;;;;;;;;;;;;;;;9.46;76.68;97836.13;5093867;27;20450;-83
2021/09/03 17:32:21;;;;;;;25.95;10.20;;;;;;;9.49;76.54;97838.44;5077591;27;19923;-83
2021/09/03 17:34:51;;;;;;;47.92;18.55;;;;;;;9.46;76.44;97836.13;5114653;28;20044;-84
2021/09/03 17:37:20;;;;;;;41.20;15.02;;;;;;;9.49;76.93;97841.09;5115867;27;20659;-84
2021/09/03 17:39:45;;;;;;;;;;;;;;;9.52;77.36;97840.78;5092517;28;20040;-84
2021/09/03 17:42:12;;;;;;;47.63;16.83;;;;;;;9.45;76.82;97838.94;5140401;27;19918;-84
2021/09/03 17:44:38;;;;;;;29.88;11.20;;;;;;;9.51;76.70;97838.31;5095462;27;20133;-86
2021/09/03 17:47:11;;;;;;;35.47;13.68;;;;;;;9.45;76.74;97836.31;5118036;27;20095;-83
2021/09/03 17:49:37;;;;;;;25.27;7.53;;;;;;;9.40;77.06;97834.13;5081369;28;20043;-81
2021/09/03 17:52:04;;;;;;;15.15;6.82;;;;;;;9.43;77.17;97838.25;5097214;27;20475;-85
2021/09/03 17:54:30;;;;;;;15.18;7.03;;;;;;;9.52;76.93;97829.41;5100242;27;20174;-79
2021/09/03 17:56:56;;;;;;;13.27;5.68;;;;;;;9.53;76.53;97831.91;5134813;27;20584;-80
2021/09/03 17:59:22;;;;;;;25.15;7.32;;;;;;;9.52;76.98;97842.59;5139463;27;20496;-81
2021/09/03 18:01:47;;;;;;;19.23;7.40;;;;;;;9.46;76.92;97844.06;5108060;27;20038;-80
2021/09/03 18:04:13;;;;;;;15.00;5.63;;;;;;;9.48;76.76;97847.38;5093980;28;20067;-79
2021/09/03 18:06:39;;;;;;;18.80;6.28;;;;;;;9.40;76.91;97857.88;5109716;27;20051;-80
2021/09/03 18:09:06;;;;;;;10.77;4.65;;;;;;;9.40;77.31;97857.88;5087161;27;20035;-82
2021/09/03 18:11:32;;;;;;;17.13;5.80;;;;;;;9.38;77.18;97854.56;5105691;27;20134;-84
2021/09/03 18:14:02;;;;;;;27.20;9.18;;;;;;;9.32;76.60;97857.81;5116761;27;20113;-81
2021/09/03 18:16:28;;;;;;;12.95;5.38;;;;;;;9.31;76.55;97858.78;5137396;27;20035;-81
2021/09/03 18:18:54;;;;;;;22.23;7.97;;;;;;;9.16;76.50;97866.44;5136006;27;20158;-81
2021/09/03 18:21:20;;;;;;;20.90;8.38;;;;;;;9.02;77.31;97865.19;5081889;28;20079;-82
2021/09/03 18:23:46;;;;;;;15.32;5.78;;;;;;;8.94;76.93;97873.06;5099628;27;20038;-82
2021/09/03 18:26:11;;;;;;;12.50;5.20;;;;;;;9.05;76.67;97871.00;5116328;27;20069;-83
2021/09/03 18:28:37;;;;;;;13.88;6.97;;;;;;;9.17;76.78;97876.88;5120117;27;20055;-79
2021/09/03 18:31:03;;;;;;;16.63;5.55;;;;;;;9.23;76.00;97875.41;5132186;27;20187;-81
2021/09/03 18:33:30;;;;;;;7.97;3.47;;;;;;;9.26;74.75;97875.09;5129919;27;20069;-82
2021/09/03 18:35:56;;;;;;;8.95;4.00;;;;;;;9.30;74.59;97881.72;5115827;27;20296;-79
2021/09/03 18:38:22;;;;;;;6.32;2.78;;;;;;;9.36;74.00;97893.47;5095911;28;20062;-79
2021/09/03 18:40:48;;;;;;;6.03;2.80;;;;;;;9.41;73.22;97880.66;5133526;27;20039;-81
2021/09/03 18:43:13;;;;;;;9.93;3.72;;;;;;;9.37;72.82;97895.09;5099240;27;20035;-79
2021/09/03 18:45:39;;;;;;;14.20;7.88;;;;;;;9.27;72.98;97894.38;5148681;27;20031;-80
2021/09/03 18:48:05;;;;;;;13.02;5.95;;;;;;;9.27;73.51;97897.03;5124941;27;20039;-80
2021/09/03 18:50:32;;;;;;;10.95;4.90;;;;;;;9.30;73.40;97894.09;5088058;27;20504;-82
2021/09/03 18:52:59;;;;;;;11.35;4.72;;;;;;;9.35;74.17;97897.09;5139860;27;20475;-80
2021/09/03 18:55:25;;;;;;;13.13;4.82;;;;;;;9.35;73.30;97891.81;5142133;27;20046;-81
2021/09/03 18:57:51;;;;;;;7.28;2.58;;;;;;;9.37;72.61;97897.75;5108331;27;20042;-82
2021/09/03 19:00:18;;;;;;;6.97;3.35;;;;;;;9.37;72.44;97916.22;5107629;27;20035;-81
2021/09/03 19:02:44;;;;;;;3.58;1.50;;;;;;;9.29;72.15;97913.53;5126712;27;20051;-79
2021/09/03 19:05:13;;;;;;;4.85;2.15;;;;;;;9.29;72.03;97918.81;5142013;27;20039;-83
2021/09/03 19:07:41;;;;;;;3.30;1.60;;;;;;;9.23;72.39;97915.81;5142306;27;20059;-81
2021/09/03 19:10:09;;;;;;;3.55;1.83;;;;;;;9.20;72.49;97916.09;5122134;28;20377;-82
2021/09/03 19:12:38;;;;;;;4.65;2.05;;;;;;;9.18;72.21;97922.50;5107494;28;20039;-80
2021/09/03 19:15:11;;;;;;;5.22;2.25;;;;;;;9.23;72.82;97926.38;5135481;27;20043;-81
2021/09/03 19:17:37;;;;;;;12.20;4.93;;;;;;;9.21;72.83;97930.97;5103613;28;20035;-79
2021/09/03 19:20:05;;;;;;;8.30;2.40;;;;;;;9.16;71.98;97933.22;5117025;27;20038;-81
2021/09/03 19:22:32;;;;;;;4.53;2.05;;;;;;;9.10;71.78;97939.09;5095756;27;20039;-83
2021/09/03 19:24:58;;;;;;;6.30;3.10;;;;;;;9.11;72.07;97945.19;5105913;27;20038;-82
2021/09/03 19:27:24;;;;;;;3.97;1.70;;;;;;;9.10;71.53;97941.75;5098965;27;20127;-79
2021/09/03 19:29:50;;;;;;;3.38;1.30;;;;;;;9.14;70.57;97937.81;5130807;27;20096;-79
2021/09/03 19:32:16;;;;;;;6.50;1.80;;;;;;;9.12;70.23;97950.34;5114379;27;20051;-82
2021/09/03 19:34:42;;;;;;;4.20;1.60;;;;;;;9.14;69.45;97937.81;5102561;27;20036;-83
2021/09/03 19:37:08;;;;;;;3.38;0.85;;;;;;;9.12;68.88;97952.13;5103260;27;20092;-83
2021/09/03 19:39:34;;;;;;;3.53;1.10;;;;;;;8.97;68.72;97955.31;5119684;28;20032;-82
2021/09/03 19:42:00;;;;;;;5.00;0.90;;;;;;;8.92;68.53;97954.09;5103127;27;20039;-81
2021/09/03 19:44:26;;;;;;;3.13;0.98;;;;;;;8.94;68.36;97965.34;5120357;27;20042;-82
2021/09/03 19:46:54;;;;;;;4.13;0.90;;;;;;;8.86;68.41;97964.28;5103477;27;20035;-80
2021/09/03 19:49:20;;;;;;;4.35;1.05;;;;;;;8.80;67.99;97982.47;5128420;27;20057;-77
2021/09/03 19:51:47;;;;;;;2.00;0.57;;;;;;;8.83;67.90;97977.75;5126370;27;20043;-86
2021/09/03 19:54:13;;;;;;;1.48;0.60;;;;;;;8.88;68.64;97980.78;5108125;27;20053;-86
2021/09/03 19:56:39;;;;;;;1.75;0.82;;;;;;;8.84;68.08;97989.13;5122228;27;20031;-84
2021/09/03 19:59:05;;;;;;;4.25;1.60;;;;;;;8.73;68.54;98000.72;5102483;28;20039;-84
2021/09/03 20:01:32;;;;;;;2.80;0.88;;;;;;;8.62;68.83;98003.56;5076098;28;20138;-83
2021/09/03 20:03:58;;;;;;;2.60;0.95;;;;;;;8.61;68.66;98017.69;5078477;28;20149;-85
2021/09/03 20:06:23;;;;;;;2.03;0.93;;;;;;;8.56;68.44;98020.78;5058238;28;20121;-83
2021/09/03 20:08:49;;;;;;;2.58;1.00;;;;;;;8.59;68.22;98028.41;5096111;28;20047;-81
2021/09/03 20:11:15;;;;;;;3.63;1.40;;;;;;;8.62;68.01;98024.63;5076061;28;20040;-83
2021/09/03 20:13:45;;;;;;;3.67;1.60;;;;;;;8.52;67.79;98022.03;5062879;28;20048;-83
2021/09/03 20:16:12;;;;;;;3.53;1.95;;;;;;;8.49;67.92;98028.44;5038181;28;20489;-79
2021/09/03 20:18:38;;;;;;;3.55;1.30;;;;;;;8.50;67.86;98032.75;5078583;28;20055;-81
2021/09/03 20:21:04;;;;;;;3.15;1.20;;;;;;;8.50;67.55;98061.72;5027434;28;20091;-80
2021/09/03 20:23:29;;;;;;;2.75;1.13;;;;;;;8.58;67.99;98046.03;5091238;28;20036;-79
2021/09/03 20:25:56;;;;;;;2.08;1.30;;;;;;;8.51;67.66;98058.13;5091451;28;20552;-80
2021/09/03 20:28:24;;;;;;;3.97;1.30;;;;;;;8.51;67.12;98058.13;5090277;28;20496;-76
2021/09/03 20:30:50;;;;;;;2.45;1.70;;;;;;;8.52;66.75;98078.22;5090089;28;20266;-80
2021/09/03 20:33:16;;;;;;;4.07;1.20;;;;;;;8.57;66.34;98078.63;5077610;28;20052;-76
2021/09/03 20:35:42;;;;;;;3.22;1.13;;;;;;;8.58;66.10;98088.19;5087788;28;20048;-78
2021/09/03 20:38:08;;;;;;;3.08;1.38;;;;;;;8.60;65.97;98093.31;5097704;27;20042;-78
2021/09/03 20:40:35;;;;;;;4.35;1.35;;;;;;;8.67;66.41;98090.91;5135148;27;20051;-79
2021/09/03 20:43:02;;;;;;;4.22;1.13;;;;;;;8.63;66.74;98098.28;5103663;27;20054;-85
2021/09/03 20:45:28;;;;;;;3.35;1.35;;;;;;;8.60;66.30;98095.94;5116922;28;20035;-84
2021/09/03 20:47:53;;;;;;;2.17;1.20;;;;;;;8.50;66.59;98101.25;5102066;28;20118;-83
2021/09/03 20:50:20;;;;;;;2.95;1.30;;;;;;;8.49;66.49;98098.75;5137895;27;20050;-83
2021/09/03 20:52:46;;;;;;;2.50;1.25;;;;;;;8.50;66.12;98119.69;5119029;27;20266;-87
2021/09/03 20:55:12;;;;;;;1.77;1.10;;;;;;;8.51;65.75;98102.91;5097635;28;20069;-84
2021/09/03 20:57:39;;;;;;;6.97;1.40;;;;;;;8.47;65.33;98114.69;5114844;28;20043;-78
2021/09/03 21:00:06;;;;;;;1.30;0.88;;;;;;;8.44;65.08;98112.31;5133180;27;20054;-81
2021/09/03 21:02:33;;;;;;;4.68;1.08;;;;;;;8.48;65.14;98121.63;5097343;27;20067;-80
2021/09/03 21:05:00;;;;;;;2.75;1.20;;;;;;;8.49;64.90;98123.28;5132926;27;20064;-80
2021/09/03 21:07:26;;;;;;;1.40;0.95;;;;;;;8.52;64.98;98127.44;5132396;27;20062;-76
2021/09/03 21:09:53;;;;;;;7.07;1.30;;;;;;;8.57;64.97;98133.09;5135039;27;20038;-85
2021/09/03 21:12:19;;;;;;;4.47;1.30;;;;;;;8.67;64.92;98136.56;5118470;27;20043;-83
2021/09/03 21:14:46;;;;;;;2.72;1.23;;;;;;;8.62;64.60;98138.78;5123540;27;20092;-82
2021/09/03 21:17:11;;;;;;;7.78;1.35;;;;;;;8.57;64.53;98139.22;5118800;27;20050;-86
2021/09/03 21:19:38;;;;;;;4.75;1.45;;;;;;;8.50;64.35;98140.75;5118369;27;20031;-79
2021/09/03 21:22:04;;;;;;;3.13;1.58;;;;;;;8.53;64.80;98148.38;5135655;27;20072;-79
2021/09/03 21:24:29;;;;;;;4.70;1.65;;;;;;;8.54;64.54;98154.50;5136518;27;20108;-80
2021/09/03 21:27:00;;;;;;;3.95;1.63;;;;;;;8.55;64.82;98148.25;5134628;27;20055;-80
2021/09/03 21:29:27;;;;;;;3.25;1.50;;;;;;;8.55;64.25;98141.16;5123100;27;20047;-80
2021/09/03 21:31:54;;;;;;;2.30;1.27;;;;;;;8.53;64.28;98145.72;5114640;28;20395;-80
2021/09/03 21:34:20;;;;;;;2.45;0.90;;;;;;;8.54;64.61;98157.94;5098429;28;20123;-80
2021/09/03 21:36:45;;;;;;;2.67;1.35;;;;;;;8.59;63.94;98160.16;5113074;28;20046;-77
2021/09/03 21:39:11;;;;;;;1.65;1.10;;;;;;;8.56;64.12;98158.63;5129672;27;20039;-78
2021/09/03 21:41:38;;;;;;;7.70;1.50;;;;;;;8.57;64.17;98162.94;5133730;27;20047;-77
2021/09/03 21:44:04;;;;;;;1.92;0.95;;;;;;;8.57;64.24;98165.56;5133523;27;20122;-78
2021/09/03 21:46:29;;;;;;;3.38;1.45;;;;;;;8.55;63.95;98166.69;5132456;27;20073;-78
2021/09/03 21:48:55;;;;;;;3.35;1.35;;;;;;;8.57;64.17;98177.91;5132850;27;20043;-79
2021/09/03 21:51:21;;;;;;;2.35;1.02;;;;;;;8.54;64.13;98163.22;5134327;27;20047;-77
2021/09/03 21:53:47;;;;;;;3.50;1.15;;;;;;;8.57;64.55;98176.13;5134093;27;20039;-78
2021/09/03 21:56:12;;;;;;;2.67;1.63;;;;;;;8.52;65.04;98170.44;5135876;27;20096;-81
2021/09/03 21:58:38;;;;;;;4.32;1.33;;;;;;;8.61;64.93;98183.72;5135581;27;20066;-81
2021/09/03 22:01:04;;;;;;;3.20;1.30;;;;;;;8.62;65.19;98188.03;5132934;27;20178;-80
2021/09/03 22:03:30;;;;;;;6.22;1.17;;;;;;;8.59;65.65;98186.50;5133563;27;20039;-81
2021/09/03 22:05:55;;;;;;;2.83;1.20;;;;;;;8.65;65.77;98191.22;5133562;27;20582;-80
2021/09/03 22:08:21;;;;;;;3.47;1.02;;;;;;;8.61;66.11;98189.84;5092862;28;20043;-82
2021/09/03 22:10:47;;;;;;;5.35;1.20;;;;;;;8.67;66.48;98193.69;5112620;28;20047;-80
2021/09/03 22:13:13;;;;;;;2.85;1.23;;;;;;;8.63;66.43;98192.31;5112734;28;20054;-80
2021/09/03 22:15:38;;;;;;;5.13;1.23;;;;;;;8.58;66.80;98190.13;5112823;28;20130;-79
2021/09/03 22:18:07;;;;;;;1.88;1.00;;;;;;;8.54;67.00;98196.66;5112830;28;20396;-76
2021/09/03 22:20:34;;;;;;;3.20;1.50;;;;;;;8.57;66.89;98207.75;5111462;28;20047;-79
2021/09/03 22:23:00;;;;;;;16.27;5.13;;;;;;;8.61;66.79;98210.06;5094525;28;20040;-79
2021/09/03 22:25:27;;;;;;;11.35;5.20;;;;;;;8.64;66.84;98194.00;5110826;28;20528;-78
2021/09/03 22:27:53;;;;;;;1.90;1.55;;;;;;;8.62;67.07;98202.03;5112049;28;20052;-77
2021/09/03 22:30:19;;;;;;;4.78;1.33;;;;;;;8.64;66.81;98207.16;5111753;28;20040;-81
2021/09/03 22:32:45;;;;;;;4.60;1.52;;;;;;;8.65;66.90;98196.47;5111065;28;20043;-78
2021/09/03 22:35:11;;;;;;;3.60;1.27;;;;;;;8.65;67.04;98211.44;5111897;28;20044;-78
2021/09/03 22:37:37;;;;;;;2.53;1.20;;;;;;;8.55;67.17;98196.50;5116927;27;20042;-76
2021/09/03 22:40:05;;;;;;;6.10;1.30;;;;;;;8.52;67.21;98212.59;5132866;27;20058;-80
2021/09/03 22:42:30;;;;;;;1.65;1.13;;;;;;;8.55;66.96;98200.94;5131270;28;20070;-79
2021/09/03 22:44:56;;;;;;;5.28;2.05;;;;;;;8.54;67.10;98210.63;5131029;28;20047;-75
2021/09/03 22:47:22;;;;;;;2.58;1.17;;;;;;;8.62;66.79;98217.84;5132513;27;20043;-75
2021/09/03 22:49:47;;;;;;;2.47;1.38;;;;;;;8.60;66.96;98209.25;5131770;27;20049;-77
2021/09/03 22:52:13;;;;;;;3.90;1.30;;;;;;;8.63;66.74;98221.31;5132477;28;20050;-76
2021/09/03 22:54:39;;;;;;;2.00;1.17;;;;;;;8.58;66.64;98229.63;5132425;27;20515;-78
2021/09/03 22:57:05;;;;;;;2.60;1.40;;;;;;;8.60;66.76;98230.34;5132131;28;20144;-77
2021/09/03 22:59:30;;;;;;;4.40;1.55;;;;;;;8.64;66.60;98236.16;5132467;28;20522;-76
2021/09/03 23:01:56;;;;;;;3.17;1.40;;;;;;;8.64;66.96;98222.97;5131807;28;20039;-77
2021/09/03 23:04:22;;;;;;;3.47;1.60;;;;;;;8.58;66.75;98230.50;5131825;27;20039;-77
2021/09/03 23:06:48;;;;;;;3.42;1.50;;;;;;;8.51;67.18;98236.44;5131617;27;20515;-77
2021/09/03 23:09:14;;;;;;;5.13;1.95;;;;;;;8.47;67.19;98241.16;5131590;28;20062;-79
2021/09/03 23:11:39;;;;;;;2.72;1.23;;;;;;;8.38;67.17;98241.97;5132038;28;20043;-77
2021/09/03 23:14:05;;;;;;;4.65;1.50;;;;;;;8.37;67.50;98251.69;5132122;27;20035;-76
2021/09/03 23:16:31;;;;;;;2.97;1.38;;;;;;;8.39;67.28;98255.00;5130745;28;20050;-75
2021/09/03 23:18:57;;;;;;;3.72;1.30;;;;;;;8.47;67.26;98245.59;5131554;27;20062;-76
2021/09/03 23:21:22;;;;;;;1.95;1.30;;;;;;;8.39;67.10;98248.91;5131660;28;20130;-76
2021/09/03 23:23:48;;;;;;;2.50;1.40;;;;;;;8.43;67.35;98245.03;5131799;27;20480;-77
2021/09/03 23:26:14;;;;;;;3.78;1.30;;;;;;;8.43;66.90;98255.56;5131739;27;20109;-76
2021/09/03 23:28:40;;;;;;;4.13;1.27;;;;;;;8.39;66.70;98255.00;5132298;27;20430;-74
2021/09/03 23:31:05;;;;;;;3.55;1.30;;;;;;;8.35;66.55;98252.78;5133945;27;20130;-75
2021/09/03 23:33:32;;;;;;;3.08;1.23;;;;;;;8.31;67.11;98256.69;5135577;27;20046;-75
2021/09/03 23:35:57;;;;;;;4.13;1.80;;;;;;;8.28;66.82;98251.69;5135229;27;20045;-74
2021/09/03 23:38:23;;;;;;;3.38;1.50;;;;;;;8.31;66.29;98268.06;5134651;27;20547;-75
2021/09/03 23:40:49;;;;;;;3.47;1.40;;;;;;;8.26;66.53;98276.38;5135306;27;20069;-75
2021/09/03 23:43:14;;;;;;;3.53;1.38;;;;;;;8.26;66.12;98270.25;5135527;27;20070;-75
2021/09/03 23:45:40;;;;;;;4.85;1.17;;;;;;;8.24;66.08;98275.66;5133947;27;20040;-74
2021/09/03 23:48:06;;;;;;;3.63;1.60;;;;;;;8.33;66.16;98281.09;5135389;27;20438;-76
2021/09/03 23:50:33;;;;;;;3.47;1.73;;;;;;;8.34;66.32;98277.50;5135388;27;20039;-74
2021/09/03 23:52:58;;;;;;;3.78;1.60;;;;;;;8.42;66.06;98286.34;5135313;27;20091;-76
2021/09/03 23:55:24;;;;;;;3.45;1.45;;;;;;;8.44;66.13;98294.13;5135180;27;20039;-76
2021/09/03 23:57:50;;;;;;;2.53;1.33;;;;;;;8.45;65.65;98287.88;5135152;27;20146;-75
